sensor_id;sensor_type;location;lat;lon;timestamp;P1;durP1;ratioP1;P2;durP2;ratioP2
24713;SDS011;12820;51.580;5.010;2023-12-29T00:02:32;15.20;;;3.05;;
24713;SDS011;12820;51.580;5.010;2023-12-29T00:07:34;17.55;;;4.00;;
24713;SDS011;12820;51.580;5.010;2023-12-29T00:12:36;13.68;;;3.20;;
24713;SDS011;12820;51.580;5.010;2023-12-29T00:17:38;18.40;;;3.08;;
24713;SDS011;12820;51.580;5.010;2023-12-29T00:22:42;12.40;;;3.17;;
24713;SDS011;12820;51.580;5.010;2023-12-29T00:27:44;20.27;;;3.78;;
24713;SDS011;12820;51.580;5.010;2023-12-29T00:32:46;12.20;;;2.90;;
24713;SDS011;12820;51.580;5.010;2023-12-29T00:37:52;19.35;;;3.78;;
24713;SDS011;12820;51.580;5.010;2023-12-29T00:42:54;14.13;;;3.20;;
24713;SDS011;12820;51.580;5.010;2023-12-29T00:47:56;18.00;;;3.90;;
24713;SDS011;12820;51.580;5.010;2023-12-29T00:52:59;18.63;;;3.28;;
24713;SDS011;12820;51.580;5.010;2023-12-29T00:58:01;15.07;;;4.13;;
24713;SDS011;12820;51.580;5.010;2023-12-29T01:03:03;15.80;;;3.97;;
24713;SDS011;12820;51.580;5.010;2023-12-29T01:08:06;17.33;;;3.95;;
24713;SDS011;12820;51.580;5.010;2023-12-29T01:13:08;20.48;;;3.78;;
24713;SDS011;12820;51.580;5.010;2023-12-29T01:18:10;19.58;;;3.95;;
24713;SDS011;12820;51.580;5.010;2023-12-29T01:23:15;18.65;;;3.88;;
24713;SDS011;12820;51.580;5.010;2023-12-29T01:28:18;19.85;;;3.90;;
24713;SDS011;12820;51.580;5.010;2023-12-29T01:33:20;12.02;;;3.55;;
24713;SDS011;12820;51.580;5.010;2023-12-29T01:38:23;17.77;;;4.43;;
24713;SDS011;12820;51.580;5.010;2023-12-29T01:43:25;21.13;;;4.13;;
24713;SDS011;12820;51.580;5.010;2023-12-29T01:48:28;19.77;;;3.75;;
24713;SDS011;12820;51.580;5.010;2023-12-29T01:53:30;15.25;;;3.63;;
24713;SDS011;12820;51.580;5.010;2023-12-29T01:58:48;10.18;;;2.97;;
24713;SDS011;12820;51.580;5.010;2023-12-29T02:03:51;16.15;;;4.18;;
24713;SDS011;12820;51.580;5.010;2023-12-29T02:08:54;14.90;;;3.63;;
24713;SDS011;12820;51.580;5.010;2023-12-29T02:13:57;18.63;;;3.67;;
24713;SDS011;12820;51.580;5.010;2023-12-29T02:19:01;15.02;;;3.50;;
24713;SDS011;12820;51.580;5.010;2023-12-29T02:24:10;14.57;;;4.25;;
24713;SDS011;12820;51.580;5.010;2023-12-29T02:29:13;14.45;;;3.55;;
24713;SDS011;12820;51.580;5.010;2023-12-29T02:34:18;10.85;;;3.17;;
24713;SDS011;12820;51.580;5.010;2023-12-29T02:39:22;14.43;;;3.22;;
24713;SDS011;12820;51.580;5.010;2023-12-29T02:44:24;17.08;;;3.35;;
24713;SDS011;12820;51.580;5.010;2023-12-29T02:49:27;11.80;;;3.50;;
24713;SDS011;12820;51.580;5.010;2023-12-29T02:54:29;16.40;;;3.45;;
24713;SDS011;12820;51.580;5.010;2023-12-29T02:59:31;15.15;;;3.40;;
24713;SDS011;12820;51.580;5.010;2023-12-29T03:04:34;15.93;;;3.53;;
24713;SDS011;12820;51.580;5.010;2023-12-29T03:09:37;22.77;;;3.67;;
24713;SDS011;12820;51.580;5.010;2023-12-29T03:14:39;20.70;;;4.80;;
24713;SDS011;12820;51.580;5.010;2023-12-29T03:19:41;17.45;;;3.88;;
24713;SDS011;12820;51.580;5.010;2023-12-29T03:24:44;13.52;;;3.20;;
24713;SDS011;12820;51.580;5.010;2023-12-29T03:29:47;22.02;;;4.35;;
24713;SDS011;12820;51.580;5.010;2023-12-29T03:34:49;14.52;;;4.20;;
24713;SDS011;12820;51.580;5.010;2023-12-29T03:39:51;12.55;;;3.53;;
24713;SDS011;12820;51.580;5.010;2023-12-29T03:44:53;26.27;;;4.63;;
24713;SDS011;12820;51.580;5.010;2023-12-29T03:49:57;16.00;;;4.05;;
24713;SDS011;12820;51.580;5.010;2023-12-29T03:55:00;11.88;;;3.60;;
24713;SDS011;12820;51.580;5.010;2023-12-29T04:00:03;18.67;;;3.83;;
24713;SDS011;12820;51.580;5.010;2023-12-29T04:05:13;17.92;;;3.65;;
24713;SDS011;12820;51.580;5.010;2023-12-29T04:10:15;17.15;;;3.95;;
24713;SDS011;12820;51.580;5.010;2023-12-29T04:15:17;18.15;;;3.85;;
24713;SDS011;12820;51.580;5.010;2023-12-29T04:20:20;16.55;;;3.63;;
24713;SDS011;12820;51.580;5.010;2023-12-29T04:25:23;16.05;;;3.35;;
24713;SDS011;12820;51.580;5.010;2023-12-29T04:30:25;21.42;;;3.83;;
24713;SDS011;12820;51.580;5.010;2023-12-29T04:35:29;18.52;;;3.67;;
24713;SDS011;12820;51.580;5.010;2023-12-29T04:40:32;16.98;;;3.38;;
24713;SDS011;12820;51.580;5.010;2023-12-29T04:45:35;17.73;;;4.15;;
24713;SDS011;12820;51.580;5.010;2023-12-29T04:50:37;18.48;;;3.83;;
24713;SDS011;12820;51.580;5.010;2023-12-29T04:55:39;17.45;;;3.65;;
24713;SDS011;12820;51.580;5.010;2023-12-29T05:00:41;16.70;;;4.18;;
24713;SDS011;12820;51.580;5.010;2023-12-29T05:05:43;21.17;;;4.38;;
24713;SDS011;12820;51.580;5.010;2023-12-29T05:10:46;18.20;;;3.83;;
24713;SDS011;12820;51.580;5.010;2023-12-29T05:15:48;19.40;;;3.67;;
24713;SDS011;12820;51.580;5.010;2023-12-29T05:20:50;16.75;;;3.40;;
24713;SDS011;12820;51.580;5.010;2023-12-29T05:25:52;16.30;;;3.58;;
24713;SDS011;12820;51.580;5.010;2023-12-29T05:30:54;15.80;;;3.55;;
24713;SDS011;12820;51.580;5.010;2023-12-29T05:35:57;17.17;;;3.83;;
24713;SDS011;12820;51.580;5.010;2023-12-29T05:40:59;16.33;;;3.50;;
24713;SDS011;12820;51.580;5.010;2023-12-29T05:46:03;18.77;;;3.63;;
24713;SDS011;12820;51.580;5.010;2023-12-29T05:51:12;14.10;;;3.17;;
24713;SDS011;12820;51.580;5.010;2023-12-29T05:56:15;17.75;;;3.63;;
24713;SDS011;12820;51.580;5.010;2023-12-29T06:01:17;16.55;;;3.45;;
24713;SDS011;12820;51.580;5.010;2023-12-29T06:06:20;17.27;;;3.70;;
24713;SDS011;12820;51.580;5.010;2023-12-29T06:11:22;15.07;;;4.03;;
24713;SDS011;12820;51.580;5.010;2023-12-29T06:16:24;20.85;;;4.20;;
24713;SDS011;12820;51.580;5.010;2023-12-29T06:21:28;19.20;;;3.80;;
24713;SDS011;12820;51.580;5.010;2023-12-29T06:26:31;13.63;;;3.55;;
24713;SDS011;12820;51.580;5.010;2023-12-29T06:31:33;14.73;;;3.53;;
24713;SDS011;12820;51.580;5.010;2023-12-29T06:36:35;15.60;;;3.97;;
24713;SDS011;12820;51.580;5.010;2023-12-29T06:41:37;16.70;;;4.30;;
24713;SDS011;12820;51.580;5.010;2023-12-29T06:46:40;17.60;;;4.15;;
24713;SDS011;12820;51.580;5.010;2023-12-29T06:51:42;11.35;;;3.10;;
24713;SDS011;12820;51.580;5.010;2023-12-29T06:56:45;18.42;;;3.75;;
24713;SDS011;12820;51.580;5.010;2023-12-29T07:01:47;16.75;;;3.65;;
24713;SDS011;12820;51.580;5.010;2023-12-29T07:06:51;11.10;;;3.50;;
24713;SDS011;12820;51.580;5.010;2023-12-29T07:11:53;16.67;;;4.00;;
24713;SDS011;12820;51.580;5.010;2023-12-29T07:16:56;14.75;;;3.72;;
24713;SDS011;12820;51.580;5.010;2023-12-29T07:21:58;11.38;;;3.42;;
24713;SDS011;12820;51.580;5.010;2023-12-29T07:27:01;12.68;;;3.80;;
24713;SDS011;12820;51.580;5.010;2023-12-29T07:32:04;12.60;;;3.42;;
24713;SDS011;12820;51.580;5.010;2023-12-29T07:37:07;14.75;;;3.45;;
24713;SDS011;12820;51.580;5.010;2023-12-29T07:42:10;12.50;;;3.70;;
24713;SDS011;12820;51.580;5.010;2023-12-29T07:47:13;11.52;;;3.78;;
24713;SDS011;12820;51.580;5.010;2023-12-29T07:52:15;12.85;;;3.63;;
24713;SDS011;12820;51.580;5.010;2023-12-29T07:57:17;16.58;;;3.60;;
24713;SDS011;12820;51.580;5.010;2023-12-29T08:02:20;11.13;;;3.08;;
24713;SDS011;12820;51.580;5.010;2023-12-29T08:07:22;9.50;;;3.20;;
24713;SDS011;12820;51.580;5.010;2023-12-29T08:12:24;12.75;;;3.38;;
24713;SDS011;12820;51.580;5.010;2023-12-29T08:17:28;10.23;;;3.13;;
24713;SDS011;12820;51.580;5.010;2023-12-29T08:22:31;8.35;;;3.00;;
24713;SDS011;12820;51.580;5.010;2023-12-29T08:27:34;10.73;;;3.17;;
24713;SDS011;12820;51.580;5.010;2023-12-29T08:32:37;6.65;;;2.83;;
24713;SDS011;12820;51.580;5.010;2023-12-29T08:37:39;8.13;;;2.90;;
24713;SDS011;12820;51.580;5.010;2023-12-29T08:42:41;8.18;;;2.78;;
24713;SDS011;12820;51.580;5.010;2023-12-29T08:47:44;8.00;;;2.43;;
24713;SDS011;12820;51.580;5.010;2023-12-29T08:52:46;6.72;;;2.45;;
24713;SDS011;12820;51.580;5.010;2023-12-29T08:57:48;8.90;;;2.58;;
24713;SDS011;12820;51.580;5.010;2023-12-29T09:02:50;8.88;;;2.92;;
24713;SDS011;12820;51.580;5.010;2023-12-29T09:07:52;8.18;;;2.63;;
24713;SDS011;12820;51.580;5.010;2023-12-29T09:12:54;7.13;;;2.40;;
24713;SDS011;12820;51.580;5.010;2023-12-29T09:17:56;8.77;;;2.75;;
24713;SDS011;12820;51.580;5.010;2023-12-29T09:22:59;5.60;;;2.30;;
24713;SDS011;12820;51.580;5.010;2023-12-29T09:28:02;5.70;;;2.40;;
24713;SDS011;12820;51.580;5.010;2023-12-29T09:33:05;6.28;;;2.47;;
24713;SDS011;12820;51.580;5.010;2023-12-29T09:38:08;8.95;;;3.53;;
24713;SDS011;12820;51.580;5.010;2023-12-29T09:43:11;6.47;;;2.60;;
24713;SDS011;12820;51.580;5.010;2023-12-29T09:48:15;6.10;;;2.28;;
24713;SDS011;12820;51.580;5.010;2023-12-29T09:53:19;6.00;;;2.35;;
24713;SDS011;12820;51.580;5.010;2023-12-29T09:58:23;4.03;;;2.15;;
24713;SDS011;12820;51.580;5.010;2023-12-29T10:03:27;7.20;;;2.10;;
24713;SDS011;12820;51.580;5.010;2023-12-29T10:08:29;4.97;;;2.05;;
24713;SDS011;12820;51.580;5.010;2023-12-29T10:13:36;5.22;;;2.28;;
24713;SDS011;12820;51.580;5.010;2023-12-29T10:18:50;5.47;;;1.88;;
24713;SDS011;12820;51.580;5.010;2023-12-29T10:24:04;6.00;;;2.55;;
24713;SDS011;12820;51.580;5.010;2023-12-29T10:29:11;6.78;;;2.10;;
24713;SDS011;12820;51.580;5.010;2023-12-29T10:34:17;5.95;;;2.30;;
24713;SDS011;12820;51.580;5.010;2023-12-29T10:39:30;6.80;;;2.25;;
24713;SDS011;12820;51.580;5.010;2023-12-29T10:44:36;8.38;;;2.40;;
24713;SDS011;12820;51.580;5.010;2023-12-29T10:49:39;5.68;;;2.20;;
24713;SDS011;12820;51.580;5.010;2023-12-29T10:54:43;6.03;;;2.30;;
24713;SDS011;12820;51.580;5.010;2023-12-29T10:59:54;11.85;;;3.15;;
24713;SDS011;12820;51.580;5.010;2023-12-29T11:05:01;8.75;;;2.35;;
24713;SDS011;12820;51.580;5.010;2023-12-29T11:10:07;10.65;;;2.70;;
24713;SDS011;12820;51.580;5.010;2023-12-29T11:15:10;10.05;;;2.88;;
24713;SDS011;12820;51.580;5.010;2023-12-29T11:20:16;15.20;;;2.90;;
24713;SDS011;12820;51.580;5.010;2023-12-29T11:25:18;10.43;;;2.63;;
24713;SDS011;12820;51.580;5.010;2023-12-29T11:30:20;8.38;;;2.72;;
24713;SDS011;12820;51.580;5.010;2023-12-29T11:35:28;11.70;;;3.80;;
24713;SDS011;12820;51.580;5.010;2023-12-29T11:40:41;12.43;;;3.33;;
24713;SDS011;12820;51.580;5.010;2023-12-29T11:45:49;12.18;;;3.15;;
24713;SDS011;12820;51.580;5.010;2023-12-29T11:50:51;11.40;;;4.10;;
24713;SDS011;12820;51.580;5.010;2023-12-29T11:55:54;12.23;;;4.05;;
24713;SDS011;12820;51.580;5.010;2023-12-29T12:00:56;7.32;;;3.22;;
24713;SDS011;12820;51.580;5.010;2023-12-29T12:05:59;8.40;;;2.83;;
24713;SDS011;12820;51.580;5.010;2023-12-29T12:21:45;8.80;;;2.25;;
24713;SDS011;12820;51.580;5.010;2023-12-29T12:26:54;7.55;;;2.50;;
24713;SDS011;12820;51.580;5.010;2023-12-29T12:31:56;9.35;;;2.45;;
24713;SDS011;12820;51.580;5.010;2023-12-29T12:36:59;6.85;;;2.95;;
24713;SDS011;12820;51.580;5.010;2023-12-29T12:42:04;9.95;;;3.00;;
24713;SDS011;12820;51.580;5.010;2023-12-29T12:47:07;9.95;;;3.08;;
24713;SDS011;12820;51.580;5.010;2023-12-29T12:52:11;11.50;;;3.53;;
24713;SDS011;12820;51.580;5.010;2023-12-29T12:57:17;11.27;;;3.38;;
24713;SDS011;12820;51.580;5.010;2023-12-29T13:02:21;6.70;;;3.47;;
24713;SDS011;12820;51.580;5.010;2023-12-29T13:07:24;7.90;;;3.70;;
24713;SDS011;12820;51.580;5.010;2023-12-29T13:12:26;8.90;;;3.60;;
24713;SDS011;12820;51.580;5.010;2023-12-29T13:17:28;7.30;;;2.97;;
24713;SDS011;12820;51.580;5.010;2023-12-29T13:22:31;5.80;;;2.38;;
24713;SDS011;12820;51.580;5.010;2023-12-29T13:27:36;5.10;;;2.17;;
24713;SDS011;12820;51.580;5.010;2023-12-29T13:32:40;7.35;;;3.30;;
24713;SDS011;12820;51.580;5.010;2023-12-29T13:48:00;8.90;;;4.38;;
24713;SDS011;12820;51.580;5.010;2023-12-29T13:53:03;7.63;;;3.70;;
24713;SDS011;12820;51.580;5.010;2023-12-29T13:58:08;9.65;;;3.53;;
24713;SDS011;12820;51.580;5.010;2023-12-29T14:03:21;7.35;;;3.35;;
24713;SDS011;12820;51.580;5.010;2023-12-29T14:08:38;7.20;;;3.08;;
24713;SDS011;12820;51.580;5.010;2023-12-29T14:13:45;9.50;;;3.65;;
24713;SDS011;12820;51.580;5.010;2023-12-29T14:18:53;5.95;;;3.17;;
24713;SDS011;12820;51.580;5.010;2023-12-29T14:23:59;5.22;;;2.67;;
24713;SDS011;12820;51.580;5.010;2023-12-29T14:29:07;6.60;;;2.70;;
24713;SDS011;12820;51.580;5.010;2023-12-29T14:34:14;6.85;;;2.65;;
24713;SDS011;12820;51.580;5.010;2023-12-29T14:39:16;7.95;;;2.63;;
24713;SDS011;12820;51.580;5.010;2023-12-29T14:44:19;9.02;;;3.10;;
24713;SDS011;12820;51.580;5.010;2023-12-29T14:49:22;7.40;;;2.72;;
24713;SDS011;12820;51.580;5.010;2023-12-29T14:54:24;6.35;;;2.70;;
24713;SDS011;12820;51.580;5.010;2023-12-29T14:59:27;6.90;;;2.35;;
24713;SDS011;12820;51.580;5.010;2023-12-29T15:04:32;7.45;;;2.35;;
24713;SDS011;12820;51.580;5.010;2023-12-29T15:09:34;3.85;;;2.20;;
24713;SDS011;12820;51.580;5.010;2023-12-29T15:14:38;3.60;;;2.10;;
24713;SDS011;12820;51.580;5.010;2023-12-29T15:19:40;6.00;;;2.35;;
24713;SDS011;12820;51.580;5.010;2023-12-29T15:24:42;5.55;;;2.20;;
24713;SDS011;12820;51.580;5.010;2023-12-29T15:29:45;6.68;;;3.03;;
24713;SDS011;12820;51.580;5.010;2023-12-29T15:34:47;7.20;;;3.75;;
24713;SDS011;12820;51.580;5.010;2023-12-29T15:39:50;11.93;;;3.95;;
24713;SDS011;12820;51.580;5.010;2023-12-29T15:44:52;13.02;;;4.20;;
24713;SDS011;12820;51.580;5.010;2023-12-29T15:49:55;11.68;;;4.35;;
24713;SDS011;12820;51.580;5.010;2023-12-29T15:54:57;10.73;;;4.88;;
24713;SDS011;12820;51.580;5.010;2023-12-29T15:59:59;8.93;;;3.97;;
24713;SDS011;12820;51.580;5.010;2023-12-29T16:05:12;12.35;;;4.10;;
24713;SDS011;12820;51.580;5.010;2023-12-29T16:10:14;13.38;;;3.80;;
24713;SDS011;12820;51.580;5.010;2023-12-29T16:15:16;9.95;;;3.45;;
24713;SDS011;12820;51.580;5.010;2023-12-29T16:20:19;10.70;;;3.17;;
24713;SDS011;12820;51.580;5.010;2023-12-29T16:25:21;13.45;;;3.20;;
24713;SDS011;12820;51.580;5.010;2023-12-29T16:30:24;13.32;;;3.30;;
24713;SDS011;12820;51.580;5.010;2023-12-29T16:35:26;9.35;;;2.88;;
24713;SDS011;12820;51.580;5.010;2023-12-29T16:40:28;12.32;;;3.22;;
24713;SDS011;12820;51.580;5.010;2023-12-29T16:45:30;18.35;;;3.10;;
24713;SDS011;12820;51.580;5.010;2023-12-29T16:50:33;14.07;;;3.30;;
24713;SDS011;12820;51.580;5.010;2023-12-29T16:55:35;12.18;;;3.75;;
24713;SDS011;12820;51.580;5.010;2023-12-29T17:00:37;13.05;;;3.88;;
24713;SDS011;12820;51.580;5.010;2023-12-29T17:05:41;14.52;;;3.63;;
24713;SDS011;12820;51.580;5.010;2023-12-29T17:10:44;10.65;;;3.70;;
24713;SDS011;12820;51.580;5.010;2023-12-29T17:15:46;12.98;;;3.53;;
24713;SDS011;12820;51.580;5.010;2023-12-29T17:20:48;16.10;;;3.70;;
24713;SDS011;12820;51.580;5.010;2023-12-29T17:25:50;16.13;;;3.92;;
24713;SDS011;12820;51.580;5.010;2023-12-29T17:31:01;15.70;;;3.25;;
24713;SDS011;12820;51.580;5.010;2023-12-29T17:36:08;15.07;;;3.35;;
24713;SDS011;12820;51.580;5.010;2023-12-29T17:41:11;11.10;;;2.90;;
24713;SDS011;12820;51.580;5.010;2023-12-29T17:46:14;19.15;;;3.85;;
24713;SDS011;12820;51.580;5.010;2023-12-29T17:51:20;15.50;;;3.50;;
24713;SDS011;12820;51.580;5.010;2023-12-29T17:56:25;17.65;;;4.05;;
24713;SDS011;12820;51.580;5.010;2023-12-29T18:01:28;18.35;;;4.38;;
24713;SDS011;12820;51.580;5.010;2023-12-29T18:06:31;24.02;;;4.80;;
24713;SDS011;12820;51.580;5.010;2023-12-29T18:11:33;15.65;;;3.90;;
24713;SDS011;12820;51.580;5.010;2023-12-29T18:16:35;17.60;;;3.90;;
24713;SDS011;12820;51.580;5.010;2023-12-29T18:21:38;17.15;;;4.03;;
24713;SDS011;12820;51.580;5.010;2023-12-29T18:26:42;18.05;;;4.13;;
24713;SDS011;12820;51.580;5.010;2023-12-29T18:31:45;20.15;;;4.40;;
24713;SDS011;12820;51.580;5.010;2023-12-29T18:36:48;23.27;;;3.78;;
24713;SDS011;12820;51.580;5.010;2023-12-29T18:41:50;18.65;;;6.13;;
24713;SDS011;12820;51.580;5.010;2023-12-29T18:46:52;15.27;;;3.75;;
24713;SDS011;12820;51.580;5.010;2023-12-29T18:51:55;17.33;;;3.40;;
24713;SDS011;12820;51.580;5.010;2023-12-29T18:56:57;23.80;;;4.32;;
24713;SDS011;12820;51.580;5.010;2023-12-29T19:02:00;21.75;;;3.65;;
24713;SDS011;12820;51.580;5.010;2023-12-29T19:07:03;13.07;;;3.20;;
24713;SDS011;12820;51.580;5.010;2023-12-29T19:12:06;15.13;;;3.45;;
24713;SDS011;12820;51.580;5.010;2023-12-29T19:17:09;15.15;;;3.13;;
24713;SDS011;12820;51.580;5.010;2023-12-29T19:22:11;15.23;;;3.00;;
24713;SDS011;12820;51.580;5.010;2023-12-29T19:27:13;19.67;;;3.97;;
24713;SDS011;12820;51.580;5.010;2023-12-29T19:32:16;23.17;;;5.40;;
24713;SDS011;12820;51.580;5.010;2023-12-29T19:37:19;21.55;;;5.07;;
24713;SDS011;12820;51.580;5.010;2023-12-29T19:42:22;36.25;;;5.18;;
24713;SDS011;12820;51.580;5.010;2023-12-29T19:47:24;24.52;;;5.10;;
24713;SDS011;12820;51.580;5.010;2023-12-29T19:52:27;27.10;;;5.35;;
24713;SDS011;12820;51.580;5.010;2023-12-29T19:57:29;25.85;;;5.65;;
24713;SDS011;12820;51.580;5.010;2023-12-29T20:02:32;28.08;;;5.25;;
24713;SDS011;12820;51.580;5.010;2023-12-29T20:07:34;21.95;;;5.38;;
24713;SDS011;12820;51.580;5.010;2023-12-29T20:12:36;21.67;;;5.22;;
24713;SDS011;12820;51.580;5.010;2023-12-29T20:17:38;28.50;;;6.20;;
24713;SDS011;12820;51.580;5.010;2023-12-29T20:22:42;27.48;;;5.70;;
24713;SDS011;12820;51.580;5.010;2023-12-29T20:27:47;19.38;;;3.92;;
24713;SDS011;12820;51.580;5.010;2023-12-29T20:32:50;28.23;;;4.95;;
24713;SDS011;12820;51.580;5.010;2023-12-29T20:37:55;23.27;;;5.05;;
24713;SDS011;12820;51.580;5.010;2023-12-29T20:42:57;24.00;;;4.70;;
24713;SDS011;12820;51.580;5.010;2023-12-29T20:47:59;17.73;;;4.13;;
24713;SDS011;12820;51.580;5.010;2023-12-29T20:53:01;21.70;;;4.43;;
24713;SDS011;12820;51.580;5.010;2023-12-29T20:58:04;22.35;;;4.35;;
24713;SDS011;12820;51.580;5.010;2023-12-29T21:03:06;17.95;;;4.20;;
24713;SDS011;12820;51.580;5.010;2023-12-29T21:08:09;28.67;;;4.57;;
24713;SDS011;12820;51.580;5.010;2023-12-29T21:13:11;20.48;;;4.40;;
24713;SDS011;12820;51.580;5.010;2023-12-29T21:18:14;21.92;;;4.38;;
24713;SDS011;12820;51.580;5.010;2023-12-29T21:23:17;25.73;;;4.35;;
24713;SDS011;12820;51.580;5.010;2023-12-29T21:28:20;25.05;;;4.15;;
24713;SDS011;12820;51.580;5.010;2023-12-29T21:33:22;20.55;;;3.72;;
24713;SDS011;12820;51.580;5.010;2023-12-29T21:38:24;20.80;;;4.60;;
24713;SDS011;12820;51.580;5.010;2023-12-29T21:43:27;23.45;;;4.18;;
24713;SDS011;12820;51.580;5.010;2023-12-29T21:48:29;23.80;;;4.65;;
24713;SDS011;12820;51.580;5.010;2023-12-29T21:53:32;21.63;;;4.82;;
24713;SDS011;12820;51.580;5.010;2023-12-29T21:58:35;26.80;;;5.13;;
24713;SDS011;12820;51.580;5.010;2023-12-29T22:03:38;20.98;;;4.13;;
24713;SDS011;12820;51.580;5.010;2023-12-29T22:08:40;27.77;;;5.40;;
24713;SDS011;12820;51.580;5.010;2023-12-29T22:13:42;23.95;;;4.45;;
24713;SDS011;12820;51.580;5.010;2023-12-29T22:18:44;23.23;;;4.70;;
24713;SDS011;12820;51.580;5.010;2023-12-29T22:23:47;19.30;;;3.78;;
24713;SDS011;12820;51.580;5.010;2023-12-29T22:28:49;19.27;;;4.38;;
24713;SDS011;12820;51.580;5.010;2023-12-29T22:33:52;23.80;;;4.70;;
24713;SDS011;12820;51.580;5.010;2023-12-29T22:38:54;21.55;;;4.22;;
24713;SDS011;12820;51.580;5.010;2023-12-29T22:43:56;17.58;;;3.83;;
24713;SDS011;12820;51.580;5.010;2023-12-29T22:48:59;21.60;;;4.28;;
24713;SDS011;12820;51.580;5.010;2023-12-29T22:54:01;20.55;;;4.43;;
24713;SDS011;12820;51.580;5.010;2023-12-29T22:59:03;16.92;;;3.72;;
24713;SDS011;12820;51.580;5.010;2023-12-29T23:04:05;23.42;;;4.25;;
24713;SDS011;12820;51.580;5.010;2023-12-29T23:09:07;15.43;;;3.50;;
24713;SDS011;12820;51.580;5.010;2023-12-29T23:14:10;15.65;;;4.10;;
24713;SDS011;12820;51.580;5.010;2023-12-29T23:19:12;16.30;;;3.97;;
24713;SDS011;12820;51.580;5.010;2023-12-29T23:24:14;18.42;;;4.20;;
24713;SDS011;12820;51.580;5.010;2023-12-29T23:29:16;17.42;;;3.97;;
24713;SDS011;12820;51.580;5.010;2023-12-29T23:34:18;16.95;;;3.60;;
24713;SDS011;12820;51.580;5.010;2023-12-29T23:39:21;14.32;;;3.50;;
24713;SDS011;12820;51.580;5.010;2023-12-29T23:44:23;18.55;;;3.55;;
24713;SDS011;12820;51.580;5.010;2023-12-29T23:49:26;15.02;;;3.55;;
24713;SDS011;12820;51.580;5.010;2023-12-29T23:54:29;22.23;;;3.97;;
24713;SDS011;12820;51.580;5.010;2023-12-29T23:59:31;14.90;;;3.72;;
